Roberts, WI

11:47 AM CDT on May 03, 2015 (GMT -0500)
Rolling Meadows | | Change Station
CLOSE
Current Station
Personal Weather Station
Location: Roberts, WI
Elevation: 1066 ft
Nearby Weather Stations

Elev 1066 ft 44.99 °N, 92.54 °W | Updated 5 minutes ago

Partly Cloudy
Partly Cloudy
75.4 °F
Feels Like 78 °F
N
3.2
Wind Variable Wind from South

Today
High -- | Low -- °F
--% Chance of Precip.
Yesterday
High -- | Low -- °F
Precip. -- in
5:57 AM 8:18 PM
Full, 100% visible
Pressure 29.80 in
Visibility 10.0 miles
Clouds Clear
Heat Index 78 °F
Dew Point 55 °F
Humidity 49%
Rainfall 0.00 in
Snow Depth Not available.
UV 9 out of 12
Pollen 9.40 out of 12
Air Quality Not available.
Flu Activity Local Activity
METAR KRNH 031635Z AUTO 21003KT 10SM CLR 22/11 A2980 RMK AO2 T02170110

More Conditions Fewer Conditions

Pressure 29.80 in
Visibility 10.0 miles
Clouds Clear
Heat Index 78 °F
Dew Point 55 °F
Humidity 49%
Rainfall 0.00 in
Snow Depth Not available.
UV 9 out of 12
Pollen 9.40 out of 12
Air Quality Not available.
Flu Activity Local Activity
METAR KRNH 031635Z AUTO 21003KT 10SM CLR 22/11 A2980 RMK AO2 T02170110

More Conditions Fewer Conditions

Nepal has a long way to go to dig out and rebuild from a devastating earthquake. We have teamed up with several charities and organizations to make contributing to the relief effort as easy as possible.
How you can help: Portlight Strategies | Red Cross

10-Day Weather Forecast

Almanac

Astronomy

May. 03, 2015 Rise Set
Actual Time
Civil Twilight
Nautical Twilight
Astronomical Twilight
Moon
Length of Visible Light
Length of Day
Tomorrow will be .
, % of the Moon is Illuminated

Today's Extremes

State Highs State Lows

Community

WunderPhotos

Upload Photos

1,818,274 photos uploaded!

WunderBlogs® & News

Nearby

Air Quality

  Air Quality AQ Index Pollutant
Not available.

Snow Depth

Station Depth Elevation

Earthquake Activity

City Distance Mag. Time & Date
Minimum magnitude displayed is 2.5.

Coastal Water Temperatures

Place Temperature

Stations

Nearby Weather Stations

Station Location Temp. Windchill Dew Point Humidity Wind Precip. Elev Updated Type